createdAt,value
2019-05-30T00:01:50.908Z,23.60
2019-05-30T00:04:23.749Z,22.37
2019-05-30T00:06:56.987Z,15.88
2019-05-30T00:09:31.256Z,17.00
2019-05-30T00:12:05.042Z,16.40
2019-05-30T00:14:38.073Z,15.30
2019-05-30T00:17:11.104Z,14.70
2019-05-30T00:19:43.995Z,15.88
2019-05-30T00:22:16.875Z,14.30
2019-05-30T00:24:49.757Z,17.48
2019-05-30T00:27:22.633Z,15.60
2019-05-30T00:29:55.471Z,19.82
2019-05-30T00:32:28.342Z,29.67
2019-05-30T00:35:02.014Z,14.60
2019-05-30T00:37:35.128Z,17.07
2019-05-30T00:40:08.721Z,12.65
2019-05-30T00:42:42.468Z,20.08
2019-05-30T00:45:20.923Z,20.43
2019-05-30T00:47:49.997Z,27.60
2019-05-30T00:50:23.078Z,32.30
2019-05-30T00:52:56.425Z,25.77
2019-05-30T00:55:29.369Z,27.37
2019-05-30T00:58:02.730Z,18.23
2019-05-30T01:00:43.264Z,17.87
2019-05-30T01:03:11.477Z,14.15
2019-05-30T01:05:44.264Z,15.08
2019-05-30T01:08:17.120Z,15.13
2019-05-30T01:10:50.015Z,13.13
2019-05-30T01:13:22.968Z,16.82
2019-05-30T01:15:56.890Z,17.48
2019-05-30T01:18:29.712Z,15.13
2019-05-30T01:21:03.266Z,19.57
2019-05-30T01:23:39.150Z,15.25
2019-05-30T01:26:12.237Z,15.50
2019-05-30T01:28:45.113Z,19.95
2019-05-30T01:31:18.029Z,20.32
2019-05-30T01:33:51.241Z,19.07
2019-05-30T01:36:24.512Z,16.45
2019-05-30T01:38:57.708Z,18.27
2019-05-30T01:41:30.927Z,17.40
2019-05-30T01:44:03.969Z,16.60
2019-05-30T01:46:36.956Z,24.05
2019-05-30T01:49:09.781Z,26.17
2019-05-30T01:51:42.582Z,15.28
2019-05-30T01:54:15.412Z,10.85
2019-05-30T01:56:48.250Z,15.43
2019-05-30T01:59:21.122Z,17.98
2019-05-30T02:01:54.352Z,15.05
2019-05-30T02:04:27.241Z,12.45
2019-05-30T02:07:01.011Z,12.25
2019-05-30T02:09:34.088Z,11.15
2019-05-30T02:12:07.639Z,10.72
2019-05-30T02:14:40.574Z,13.95
2019-05-30T02:17:13.460Z,18.50
2019-05-30T02:19:46.465Z,19.73
2019-05-30T02:22:19.416Z,12.65
2019-05-30T02:24:52.287Z,15.70
2019-05-30T02:27:25.217Z,17.52
2019-05-30T02:29:58.065Z,16.70
2019-05-30T02:32:31.061Z,18.12
2019-05-30T02:35:05.323Z,12.13
2019-05-30T02:37:38.654Z,11.65
2019-05-30T02:40:14.838Z,13.18
2019-05-30T02:42:47.000Z,11.73
2019-05-30T02:45:20.043Z,8.73
2019-05-30T02:47:53.594Z,7.15
2019-05-30T02:50:26.441Z,12.28
2019-05-30T02:52:59.472Z,10.68
2019-05-30T02:55:32.896Z,8.95
2019-05-30T02:58:06.624Z,18.50
2019-05-30T03:00:40.555Z,13.62
2019-05-30T03:03:14.687Z,14.13
2019-05-30T03:05:47.795Z,10.78
2019-05-30T03:08:21.437Z,12.80
2019-05-30T03:10:54.335Z,12.03
2019-05-30T03:13:27.380Z,12.65
2019-05-30T03:16:01.963Z,13.68
2019-05-30T03:18:34.899Z,12.37
2019-05-30T03:21:10.287Z,8.65
2019-05-30T03:23:42.237Z,12.17
2019-05-30T03:26:16.018Z,13.72
2019-05-30T03:28:53.272Z,15.20
2019-05-30T03:31:29.412Z,17.45
2019-05-30T03:34:00.700Z,10.85
2019-05-30T03:36:33.577Z,16.37
2019-05-30T03:39:10.043Z,12.13
2019-05-30T03:41:42.643Z,16.35
2019-05-30T03:44:15.886Z,7.03
2019-05-30T03:46:54.607Z,10.23
2019-05-30T03:49:30.986Z,10.45
2019-05-30T03:52:08.118Z,10.95
2019-05-30T03:54:42.842Z,7.92
2019-05-30T03:57:25.939Z,9.60
2019-05-30T04:00:11.145Z,7.33
2019-05-30T04:03:13.203Z,6.83
2019-05-30T04:05:51.953Z,9.95
2019-05-30T04:08:27.197Z,6.35
2019-05-30T04:11:04.342Z,8.23
2019-05-30T04:13:50.882Z,9.20
2019-05-30T04:16:23.793Z,6.28
2019-05-30T04:18:57.799Z,10.03
2019-05-30T04:21:30.709Z,13.55
2019-05-30T04:24:07.291Z,7.92
2019-05-30T04:26:40.329Z,12.05
2019-05-30T04:29:14.981Z,10.18
2019-05-30T04:31:47.851Z,17.52
2019-05-30T04:34:20.822Z,15.28
2019-05-30T04:36:53.921Z,14.30
2019-05-30T04:39:26.881Z,11.35
2019-05-30T04:41:59.674Z,13.70
2019-05-30T04:44:32.442Z,11.25
2019-05-30T04:47:05.439Z,12.58
2019-05-30T04:49:38.302Z,12.95
2019-05-30T04:52:15.756Z,15.25
2019-05-30T04:54:45.730Z,25.55
2019-05-30T04:57:19.245Z,15.05
2019-05-30T04:59:53.029Z,14.85
2019-05-30T05:02:25.811Z,22.22
2019-05-30T05:04:58.834Z,12.90
2019-05-30T05:07:31.736Z,13.95
2019-05-30T05:10:04.978Z,13.28
2019-05-30T05:12:37.821Z,12.88
2019-05-30T05:15:12.371Z,12.55
2019-05-30T05:17:45.381Z,10.85
2019-05-30T05:20:19.374Z,19.98
2019-05-30T05:22:52.272Z,16.02
2019-05-30T05:25:25.125Z,18.12
2019-05-30T05:27:58.242Z,18.10
2019-05-30T05:30:32.661Z,15.78
2019-05-30T05:33:05.634Z,15.43
2019-05-30T05:35:38.551Z,18.67
2019-05-30T05:38:11.332Z,12.68
2019-05-30T05:40:44.151Z,9.75
2019-05-30T05:43:18.586Z,11.05
2019-05-30T05:45:51.689Z,8.10
2019-05-30T05:48:24.793Z,7.65
2019-05-30T05:50:57.824Z,11.15
2019-05-30T05:53:30.685Z,7.97
2019-05-30T05:56:03.494Z,8.00
2019-05-30T05:58:36.342Z,7.30
2019-05-30T06:01:09.261Z,9.68
2019-05-30T06:03:42.122Z,7.55
2019-05-30T06:06:15.004Z,5.37
2019-05-30T06:08:47.947Z,8.63
2019-05-30T06:11:20.833Z,8.18
2019-05-30T06:13:53.681Z,9.43
2019-05-30T06:16:26.567Z,7.10
2019-05-30T06:18:59.467Z,7.87
2019-05-30T06:21:32.319Z,11.15
2019-05-30T06:24:05.465Z,9.73
2019-05-30T06:26:38.345Z,8.65
2019-05-30T06:29:11.160Z,7.62
2019-05-30T06:31:44.072Z,8.25
2019-05-30T06:34:29.203Z,12.58
2019-05-30T06:36:52.440Z,8.68
2019-05-30T06:39:25.491Z,8.10
2019-05-30T06:41:58.515Z,5.25
2019-05-30T06:44:31.472Z,9.85
2019-05-30T06:47:04.434Z,8.83
2019-05-30T06:49:37.300Z,8.83
2019-05-30T06:52:10.183Z,7.60
2019-05-30T06:54:43.073Z,8.30
2019-05-30T06:57:15.851Z,7.33
2019-05-30T06:59:48.934Z,5.95
2019-05-30T07:02:22.319Z,6.95
2019-05-30T07:04:55.754Z,9.25
2019-05-30T07:07:29.299Z,7.28
2019-05-30T07:10:02.252Z,11.63
2019-05-30T07:12:35.222Z,6.87
2019-05-30T07:15:09.160Z,4.67
2019-05-30T07:17:41.954Z,10.70
2019-05-30T07:20:16.315Z,7.08
2019-05-30T07:22:49.194Z,5.62
2019-05-30T07:25:23.792Z,6.15
2019-05-30T07:27:56.847Z,8.88
2019-05-30T07:30:30.088Z,2.60
2019-05-30T07:33:02.920Z,3.52
2019-05-30T07:35:36.846Z,5.58
2019-05-30T07:38:09.771Z,6.35
2019-05-30T07:40:42.704Z,4.17
2019-05-30T07:43:16.639Z,2.75
2019-05-30T07:45:57.864Z,4.05
2019-05-30T07:48:23.983Z,5.28
2019-05-30T07:50:56.873Z,4.08
2019-05-30T07:53:30.668Z,4.15
2019-05-30T07:56:03.632Z,1.82
2019-05-30T07:58:37.392Z,8.18
2019-05-30T08:01:10.300Z,6.45
2019-05-30T08:03:43.110Z,1.10
2019-05-30T08:06:15.887Z,1.92
2019-05-30T08:08:49.784Z,5.45
2019-05-30T08:11:22.681Z,4.87
2019-05-30T08:13:55.531Z,4.53
2019-05-30T08:16:29.165Z,3.45
2019-05-30T08:19:02.218Z,2.98
2019-05-30T08:21:36.184Z,5.15
2019-05-30T08:24:09.209Z,2.87
2019-05-30T08:26:42.054Z,6.60
2019-05-30T08:29:14.846Z,3.12
2019-05-30T08:31:48.822Z,3.42
2019-05-30T08:34:21.626Z,3.60
2019-05-30T08:36:55.270Z,4.70
2019-05-30T08:39:28.961Z,8.10
2019-05-30T08:42:02.069Z,3.15
2019-05-30T08:44:35.879Z,4.92
2019-05-30T08:47:08.897Z,6.47
2019-05-30T08:49:41.679Z,5.85
2019-05-30T08:52:14.481Z,7.12
2019-05-30T08:54:47.231Z,8.38
2019-05-30T08:57:20.058Z,4.42
2019-05-30T08:59:53.027Z,3.55
2019-05-30T09:02:25.822Z,4.03
2019-05-30T09:04:59.801Z,3.77
2019-05-30T09:07:32.636Z,4.22
2019-05-30T09:10:06.461Z,6.10
2019-05-30T09:12:40.974Z,7.00
2019-05-30T09:15:14.746Z,6.47
2019-05-30T09:17:47.575Z,6.90
2019-05-30T09:20:20.660Z,6.53
2019-05-30T09:22:54.238Z,2.65
2019-05-30T09:25:27.471Z,3.65
2019-05-30T09:28:00.315Z,4.50
2019-05-30T09:30:33.285Z,4.30
2019-05-30T09:33:06.684Z,5.58
2019-05-30T09:35:40.226Z,3.00
2019-05-30T09:38:15.232Z,4.03
2019-05-30T09:40:48.109Z,4.42
2019-05-30T09:43:21.031Z,10.72
2019-05-30T09:45:53.842Z,3.40
2019-05-30T09:48:27.398Z,7.08
2019-05-30T09:51:00.450Z,4.70
2019-05-30T09:53:33.607Z,6.33
2019-05-30T09:56:06.549Z,5.50
2019-05-30T09:58:39.468Z,2.33
2019-05-30T10:01:12.488Z,4.30
2019-05-30T10:03:46.481Z,3.95
2019-05-30T10:06:28.970Z,4.78
2019-05-30T10:08:54.491Z,11.57
2019-05-30T10:11:27.253Z,6.22
2019-05-30T10:14:02.470Z,4.80
2019-05-30T10:16:35.623Z,5.78
2019-05-30T10:19:08.463Z,5.33
2019-05-30T10:21:42.703Z,5.05
2019-05-30T10:24:15.487Z,4.20
2019-05-30T10:26:49.005Z,3.10
2019-05-30T10:29:21.907Z,3.08
2019-05-30T10:31:54.752Z,5.47
2019-05-30T10:34:27.670Z,7.25
2019-05-30T10:37:00.833Z,7.47
2019-05-30T10:39:34.156Z,7.08
2019-05-30T10:42:06.958Z,6.85
2019-05-30T10:44:39.820Z,7.25
2019-05-30T10:47:12.612Z,4.78
2019-05-30T10:49:46.718Z,6.83
2019-05-30T10:52:20.053Z,4.35
2019-05-30T10:54:53.506Z,4.80
2019-05-30T10:57:26.533Z,4.58
2019-05-30T10:59:59.614Z,6.03
2019-05-30T11:02:32.492Z,4.70
2019-05-30T11:05:06.105Z,9.33
2019-05-30T11:08:05.656Z,4.65
2019-05-30T11:10:41.094Z,4.50
2019-05-30T11:13:16.862Z,6.90
2019-05-30T11:15:50.015Z,5.25
2019-05-30T11:18:24.253Z,7.37
2019-05-30T11:20:58.633Z,5.30
2019-05-30T11:23:31.710Z,3.40
2019-05-30T11:26:04.614Z,9.03
2019-05-30T11:28:37.476Z,4.65
2019-05-30T11:31:10.469Z,4.30
2019-05-30T11:33:43.349Z,5.97
2019-05-30T11:36:16.263Z,7.17
2019-05-30T11:38:49.189Z,4.80
2019-05-30T11:41:22.434Z,6.67
2019-05-30T11:43:55.633Z,5.53
2019-05-30T11:46:28.637Z,4.78
2019-05-30T11:49:01.460Z,4.58
2019-05-30T11:51:34.219Z,7.47
2019-05-30T11:54:07.078Z,5.05
2019-05-30T11:56:39.884Z,4.50
2019-05-30T11:59:12.712Z,3.95
2019-05-30T12:01:46.577Z,4.25
2019-05-30T12:04:19.515Z,3.98
2019-05-30T12:06:53.148Z,6.67
2019-05-30T12:09:26.130Z,4.35
2019-05-30T12:11:59.317Z,4.42
2019-05-30T12:14:32.402Z,8.40
2019-05-30T12:17:05.219Z,15.65
2019-05-30T12:19:38.135Z,10.05
2019-05-30T12:22:10.966Z,8.88
2019-05-30T12:24:44.008Z,7.03
2019-05-30T12:27:16.893Z,6.20
2019-05-30T12:29:49.702Z,10.30
2019-05-30T12:32:22.603Z,6.75
2019-05-30T12:34:56.359Z,7.10
2019-05-30T12:37:29.503Z,5.92
2019-05-30T12:40:03.204Z,5.25
2019-05-30T12:42:36.140Z,7.83
2019-05-30T12:45:11.636Z,5.85
2019-05-30T12:47:45.386Z,5.72
2019-05-30T12:50:19.769Z,7.03
2019-05-30T12:52:53.425Z,5.20
2019-05-30T12:55:26.448Z,5.45
2019-05-30T12:58:00.656Z,14.95
2019-05-30T13:00:35.561Z,3.30
2019-05-30T13:03:08.390Z,7.00
2019-05-30T13:05:41.224Z,12.60
2019-05-30T13:08:21.172Z,5.95
2019-05-30T13:10:50.650Z,7.45
2019-05-30T13:13:23.563Z,10.23
2019-05-30T13:15:56.590Z,7.17
2019-05-30T13:18:29.641Z,12.30
2019-05-30T13:21:02.641Z,6.53
2019-05-30T13:23:35.507Z,6.97
2019-05-30T13:26:08.332Z,4.03
2019-05-30T13:28:41.172Z,3.95
2019-05-30T13:31:13.960Z,9.40
2019-05-30T13:33:47.957Z,2.17
2019-05-30T13:36:20.753Z,4.05
2019-05-30T13:38:53.589Z,4.12
2019-05-30T13:41:26.390Z,3.98
2019-05-30T13:44:03.359Z,8.15
2019-05-30T13:46:33.864Z,5.53
2019-05-30T13:49:06.838Z,6.55
2019-05-30T13:51:39.796Z,7.08
2019-05-30T13:54:12.537Z,5.90
2019-05-30T13:56:45.389Z,3.75
2019-05-30T13:59:18.349Z,4.33
2019-05-30T14:01:51.231Z,5.12
2019-05-30T14:04:24.115Z,4.53
2019-05-30T14:06:57.031Z,4.95
2019-05-30T14:09:31.257Z,4.22
2019-05-30T14:12:04.476Z,4.00
2019-05-30T14:14:37.788Z,5.22
2019-05-30T14:17:12.400Z,3.02
2019-05-30T14:19:45.189Z,5.92
2019-05-30T14:22:17.979Z,4.17
2019-05-30T14:24:50.833Z,11.88
2019-05-30T14:27:27.051Z,5.67
2019-05-30T14:29:59.990Z,6.83
2019-05-30T14:32:34.072Z,4.83
2019-05-30T14:35:08.335Z,4.58
2019-05-30T14:37:41.516Z,5.20
2019-05-30T14:40:16.517Z,10.05
2019-05-30T14:42:50.887Z,5.75
2019-05-30T14:45:24.111Z,3.62
2019-05-30T14:47:57.167Z,3.85
2019-05-30T14:50:30.290Z,5.83
2019-05-30T14:53:03.234Z,2.77
2019-05-30T14:55:36.425Z,4.00
2019-05-30T14:58:11.253Z,3.08
2019-05-30T15:00:44.375Z,7.95
2019-05-30T15:03:18.481Z,2.80
2019-05-30T15:05:54.332Z,6.78
2019-05-30T15:08:27.493Z,6.78
2019-05-30T15:11:00.917Z,9.00
2019-05-30T15:13:33.813Z,10.65
2019-05-30T15:16:06.823Z,10.08
2019-05-30T15:18:39.834Z,14.38
2019-05-30T15:21:12.693Z,10.85
2019-05-30T15:23:45.652Z,9.73
2019-05-30T15:26:18.791Z,9.78
2019-05-30T15:28:52.422Z,6.75
2019-05-30T15:31:25.352Z,6.92
2019-05-30T15:33:58.369Z,8.63
2019-05-30T15:36:31.375Z,8.15
2019-05-30T15:39:06.803Z,7.47
2019-05-30T15:41:39.808Z,5.80
2019-05-30T15:44:13.640Z,10.70
2019-05-30T15:46:46.851Z,6.87
2019-05-30T15:49:19.736Z,6.40
2019-05-30T15:51:52.881Z,8.45
2019-05-30T15:54:25.785Z,9.10
2019-05-30T15:56:59.188Z,5.03
2019-05-30T15:59:32.465Z,8.43
2019-05-30T16:02:05.257Z,5.12
2019-05-30T16:04:38.299Z,9.85
2019-05-30T16:07:11.183Z,13.70
2019-05-30T16:09:47.025Z,15.25
2019-05-30T16:12:19.396Z,8.00
2019-05-30T16:14:52.434Z,7.10
2019-05-30T16:17:25.273Z,3.42
2019-05-30T16:19:58.312Z,8.48
2019-05-30T16:22:31.220Z,6.47
2019-05-30T16:25:04.424Z,4.70
2019-05-30T16:27:38.716Z,4.00
2019-05-30T16:30:19.694Z,8.20
2019-05-30T16:32:49.359Z,6.37
2019-05-30T16:35:22.373Z,8.53
2019-05-30T16:37:55.233Z,9.70
2019-05-30T16:40:28.735Z,8.28
2019-05-30T16:43:01.585Z,8.50
2019-05-30T16:45:34.441Z,9.30
2019-05-30T16:48:07.414Z,8.48
2019-05-30T16:50:40.268Z,4.15
2019-05-30T16:53:13.418Z,10.30
2019-05-30T16:55:48.598Z,11.03
2019-05-30T16:58:22.036Z,7.97
2019-05-30T17:00:55.763Z,5.67
2019-05-30T17:03:33.161Z,5.47
2019-05-30T17:06:06.230Z,4.05
2019-05-30T17:08:39.493Z,7.10
2019-05-30T17:11:15.238Z,2.67
2019-05-30T17:13:49.034Z,5.28
2019-05-30T17:16:22.147Z,2.58
2019-05-30T17:18:58.419Z,4.72
2019-05-30T17:21:31.407Z,2.58
2019-05-30T17:24:04.568Z,2.55
2019-05-30T17:26:43.992Z,6.65
2019-05-30T17:29:21.604Z,3.08
2019-05-30T17:31:59.503Z,4.33
2019-05-30T17:34:32.801Z,3.02
2019-05-30T17:37:07.709Z,6.83
2019-05-30T17:39:41.621Z,4.90
2019-05-30T17:42:18.667Z,6.12
2019-05-30T17:44:54.647Z,10.88
2019-05-30T17:47:27.709Z,5.42
2019-05-30T17:50:04.898Z,4.20
2019-05-30T17:52:38.581Z,7.90
2019-05-30T17:55:15.139Z,4.85
2019-05-30T17:57:52.563Z,4.53
2019-05-30T18:00:30.545Z,6.00
2019-05-30T18:03:07.208Z,12.63
2019-05-30T18:05:44.294Z,10.58
2019-05-30T18:08:24.796Z,6.97
2019-05-30T18:11:04.374Z,6.17
2019-05-30T18:13:44.165Z,9.38
2019-05-30T18:16:19.074Z,7.62
2019-05-30T18:18:59.537Z,12.47
2019-05-30T18:21:38.348Z,8.88
2019-05-30T18:24:14.625Z,10.30
2019-05-30T18:26:53.141Z,5.55
2019-05-30T18:29:27.779Z,4.67
2019-05-30T18:32:04.867Z,8.68
2019-05-30T18:34:44.824Z,20.95
2019-05-30T18:37:20.502Z,32.45
2019-05-30T18:39:57.106Z,52.25
2019-05-30T18:42:33.727Z,55.20
2019-05-30T18:45:08.237Z,36.75
2019-05-30T18:47:45.687Z,28.85
2019-05-30T18:50:18.992Z,23.60
2019-05-30T18:52:54.579Z,18.65
2019-05-30T18:55:30.735Z,26.73
2019-05-30T18:58:07.296Z,20.60
2019-05-30T19:00:38.982Z,31.97
2019-05-30T19:03:15.945Z,17.73
2019-05-30T19:05:49.237Z,27.30
2019-05-30T19:08:29.798Z,14.23
2019-05-30T19:11:08.950Z,10.35
2019-05-30T19:14:07.275Z,7.80
2019-05-30T19:16:44.464Z,8.70
2019-05-30T19:19:18.000Z,6.58
2019-05-30T19:21:55.867Z,9.00
2019-05-30T19:24:28.601Z,10.48
2019-05-30T19:27:01.727Z,12.95
2019-05-30T19:29:37.597Z,17.42
2019-05-30T19:32:10.565Z,19.32
2019-05-30T19:34:45.750Z,19.30
2019-05-30T19:37:19.897Z,22.62
2019-05-30T19:40:04.265Z,17.35
2019-05-30T19:42:49.364Z,22.77
2019-05-30T19:45:31.972Z,21.50
2019-05-30T19:48:09.198Z,24.82
2019-05-30T19:50:49.576Z,25.80
2019-05-30T19:53:24.546Z,32.93
2019-05-30T19:55:57.743Z,29.70
2019-05-30T19:58:33.414Z,32.10
2019-05-30T20:01:09.469Z,26.82
2019-05-30T20:03:46.757Z,15.70
2019-05-30T20:06:19.281Z,33.30
2019-05-30T20:08:55.791Z,36.63
2019-05-30T20:11:31.518Z,19.07
2019-05-30T20:14:08.063Z,20.48
2019-05-30T20:16:53.860Z,21.60
2019-05-30T20:23:13.251Z,30.77
2019-05-30T20:25:56.629Z,27.05
2019-05-30T20:28:36.828Z,26.65
2019-05-30T20:31:49.991Z,48.98
2019-05-30T20:34:05.855Z,24.30
2019-05-30T20:36:40.589Z,23.92
2019-05-30T20:39:25.521Z,21.70
2019-05-30T20:43:13.671Z,27.80
2019-05-30T20:46:27.022Z,20.50
2019-05-30T20:49:02.497Z,38.53
2019-05-30T20:51:37.239Z,54.48
2019-05-30T20:54:13.443Z,83.05
2019-05-30T20:56:50.546Z,113.40
2019-05-30T20:59:27.076Z,31.80
2019-05-30T21:02:09.406Z,27.65
2019-05-30T21:04:47.067Z,30.95
2019-05-30T21:07:22.200Z,35.25
2019-05-30T21:10:01.609Z,41.42
2019-05-30T21:12:39.348Z,28.10
2019-05-30T21:15:17.274Z,28.38
2019-05-30T21:18:11.646Z,27.00
2019-05-30T21:20:53.493Z,24.57
2019-05-30T21:23:48.114Z,23.75
2019-05-30T21:26:22.499Z,19.85
2019-05-30T21:29:10.741Z,23.50
2019-05-30T21:31:47.718Z,25.60
2019-05-30T21:34:25.575Z,24.10
2019-05-30T21:37:04.639Z,26.02
2019-05-30T21:39:46.107Z,25.30
2019-05-30T21:42:32.162Z,26.55
2019-05-30T21:45:06.541Z,23.60
2019-05-30T21:47:40.750Z,21.70
2019-05-30T21:50:14.801Z,28.60
2019-05-30T21:52:51.991Z,29.10
2019-05-30T21:55:29.480Z,22.17
2019-05-30T21:58:03.868Z,27.13
2019-05-30T22:01:34.036Z,17.12
2019-05-30T22:04:08.303Z,26.17
2019-05-30T22:06:42.718Z,23.12
2019-05-30T22:09:16.095Z,19.98
2019-05-30T22:11:51.755Z,31.37
2019-05-30T22:14:31.083Z,39.80
2019-05-30T22:17:06.167Z,32.63
2019-05-30T22:19:39.139Z,38.33
2019-05-30T22:22:13.885Z,40.60
2019-05-30T22:24:48.494Z,42.15
2019-05-30T22:27:21.548Z,70.03
2019-05-30T22:29:54.483Z,61.92
2019-05-30T22:32:27.673Z,50.30
2019-05-30T22:35:00.580Z,49.75
2019-05-30T22:37:33.502Z,41.37
2019-05-30T22:40:23.837Z,31.68
2019-05-30T22:43:02.504Z,20.85
2019-05-30T22:45:48.194Z,23.52
2019-05-30T22:48:17.343Z,24.00
2019-05-30T22:50:50.706Z,28.57
2019-05-30T22:53:23.727Z,30.10
2019-05-30T22:55:57.411Z,24.18
2019-05-30T22:58:30.565Z,24.98
2019-05-30T23:01:03.518Z,32.15
2019-05-30T23:16:10.381Z,116.03
2019-05-30T23:19:01.753Z,99.10
2019-05-30T23:21:34.734Z,97.27
2019-05-30T23:24:07.617Z,68.47
2019-05-30T23:26:40.794Z,66.15
2019-05-30T23:34:24.903Z,53.85
2019-05-30T23:37:24.760Z,30.75
2019-05-30T23:39:59.006Z,30.15
2019-05-30T23:42:31.977Z,25.45
2019-05-30T23:45:05.074Z,23.47
2019-05-30T23:47:47.220Z,27.52
2019-05-30T23:50:20.335Z,33.85
2019-05-30T23:52:54.079Z,28.47
2019-05-30T23:55:27.083Z,29.32
2019-05-30T23:58:00.817Z,26.00
